Time;durP1;ratioP1;P1;durP2;ratioP2;P2;SDS_P1;SDS_P2;PMS_P1;PMS_P2;Temp;Humidity;BMP_temperature;BMP_pressure;BME280_temperature;BME280_humidity;BME280_pressure;Samples;Min_cycle;Max_cycle;Signal;HPM_P1;HPM_P2
2023/10/12 00:01:05;;;;;;;15.75;5.43;;;;;;;12.19;90.54;100468.63;4984906;28;20050;-60
2023/10/12 00:03:35;;;;;;;15.88;5.40;;;;;;;12.33;89.25;100463.16;4963863;28;20468;-61
2023/10/12 00:06:07;;;;;;;15.88;5.60;;;;;;;12.45;87.50;100462.84;4965519;28;20116;-60
2023/10/12 00:08:38;;;;;;;21.63;6.80;;;;;;;12.57;86.81;100466.13;4959030;28;20049;-61
2023/10/12 00:11:09;;;;;;;21.30;7.90;;;;;;;12.67;85.95;100463.28;4969332;28;20140;-62
2023/10/12 00:13:42;;;;;;;22.90;7.93;;;;;;;12.78;86.00;100465.69;4956307;28;20042;-62
2023/10/12 00:16:18;;;;;;;26.08;9.32;;;;;;;12.84;85.00;100470.78;4963982;28;20133;-64
2023/10/12 00:18:49;;;;;;;25.85;9.85;;;;;;;12.93;84.57;100460.09;4965942;28;20083;-61
2023/10/12 00:21:25;;;;;;;24.00;7.78;;;;;;;13.00;82.63;100462.56;4956456;28;20050;-61
2023/10/12 00:23:57;;;;;;;28.23;8.40;;;;;;;13.09;81.50;100454.47;4967944;28;20050;-63
2023/10/12 00:26:30;;;;;;;26.08;8.80;;;;;;;13.17;80.80;100460.41;4974904;28;20472;-61
2023/10/12 00:29:02;;;;;;;21.52;8.65;;;;;;;13.29;81.25;100462.75;4984666;28;20057;-62
2023/10/12 00:31:35;;;;;;;41.92;9.30;;;;;;;13.41;80.82;100455.50;4974839;28;20049;-62
2023/10/12 00:34:08;;;;;;;26.75;8.00;;;;;;;13.49;77.41;100443.03;4984619;28;20061;-61
2023/10/12 00:36:40;;;;;;;21.23;7.93;;;;;;;13.60;76.05;100440.97;4971870;28;20494;-60
2023/10/12 00:39:11;;;;;;;15.93;7.03;;;;;;;13.72;74.48;100440.66;4976149;28;20084;-61
2023/10/12 00:41:44;;;;;;;19.55;7.03;;;;;;;13.78;71.21;100430.00;4984560;28;20046;-60
2023/10/12 00:44:18;;;;;;;12.10;4.60;;;;;;;13.81;70.15;100423.81;4974682;28;20064;-60
2023/10/12 00:47:07;;;;;;;10.43;4.40;;;;;;;13.93;68.62;100427.88;4984417;28;20121;-62
2023/10/12 00:49:48;;;;;;;10.45;3.70;;;;;;;14.10;69.32;100417.72;4973942;28;20058;-60
2023/10/12 00:52:26;;;;;;;10.57;3.38;;;;;;;14.20;65.80;100421.84;4975353;28;20081;-60
2023/10/12 00:55:13;;;;;;;8.82;3.50;;;;;;;14.28;65.36;100423.34;4984470;28;20132;-59
2023/10/12 00:57:44;;;;;;;13.80;3.55;;;;;;;14.39;65.44;100421.28;4973707;28;20053;-62
2023/10/12 01:00:17;;;;;;;11.68;3.70;;;;;;;14.51;65.59;100426.19;4974334;28;20076;-62
2023/10/12 01:03:07;;;;;;;8.13;3.45;;;;;;;14.54;65.19;100420.84;4984494;28;20060;-59
2023/10/12 01:05:37;;;;;;;16.13;3.90;;;;;;;14.55;64.19;100427.84;4955059;28;20054;-62
2023/10/12 01:08:10;;;;;;;10.70;3.73;;;;;;;14.60;63.87;100415.44;4965117;28;20300;-62
2023/10/12 01:10:41;;;;;;;13.32;3.75;;;;;;;14.73;63.34;100415.06;4967299;28;20287;-60
2023/10/12 01:13:11;;;;;;;14.80;4.30;;;;;;;14.81;63.01;100415.66;4975318;28;20054;-61
2023/10/12 01:15:46;;;;;;;11.07;4.23;;;;;;;14.84;63.25;100412.94;4983958;28;20289;-61
2023/10/12 01:18:28;;;;;;;10.63;3.93;;;;;;;14.90;63.91;100412.72;4974095;28;20375;-60
2023/10/12 01:20:58;;;;;;;14.47;3.80;;;;;;;14.96;62.34;100412.53;4983839;28;20313;-62
2023/10/12 01:23:32;;;;;;;13.53;4.20;;;;;;;15.10;62.89;100414.72;4974353;28;20662;-61
2023/10/12 01:26:10;;;;;;;10.80;4.40;;;;;;;15.16;61.48;100409.28;4964623;28;20290;-60
2023/10/12 01:28:44;;;;;;;10.47;3.43;;;;;;;15.23;62.12;100404.69;4947700;28;20285;-62
2023/10/12 01:31:16;;;;;;;8.07;3.70;;;;;;;15.30;61.43;100400.91;4955053;28;20681;-61
2023/10/12 01:33:54;;;;;;;12.43;4.10;;;;;;;15.31;60.09;100402.63;4964457;28;20290;-62
2023/10/12 01:36:30;;;;;;;11.37;3.67;;;;;;;15.41;61.05;100404.03;4971882;28;20288;-60
2023/10/12 01:39:12;;;;;;;11.90;4.07;;;;;;;15.49;61.21;100395.88;4987462;28;20360;-59
2023/10/12 01:41:43;;;;;;;15.67;4.20;;;;;;;15.42;61.97;100379.41;4970941;28;20284;-62
2023/10/12 01:44:14;;;;;;;13.87;4.63;;;;;;;15.54;60.94;100400.06;4977744;28;20291;-61
2023/10/12 01:46:49;;;;;;;16.53;4.70;;;;;;;15.49;61.49;100380.94;4987069;28;20605;-61
2023/10/12 01:49:19;;;;;;;9.43;3.30;;;;;;;15.68;57.43;100391.69;4978235;28;20292;-61
2023/10/12 01:51:50;;;;;;;8.60;3.63;;;;;;;15.67;52.13;100389.09;4987731;28;20299;-61
2023/10/12 01:54:24;;;;;;;8.30;3.70;;;;;;;15.67;53.40;100389.09;4977829;28;20342;-61
2023/10/12 01:56:55;;;;;;;9.50;3.77;;;;;;;15.78;53.59;100380.88;4987164;28;20285;-61
2023/10/12 01:59:26;;;;;;;8.43;3.80;;;;;;;15.91;52.58;100390.88;4977318;28;20304;-60
2023/10/12 02:02:06;;;;;;;11.30;3.93;;;;;;;15.98;55.57;100382.78;4986826;28;20277;-61
2023/10/12 02:04:39;;;;;;;9.73;3.93;;;;;;;16.07;56.68;100371.88;4969918;28;21061;-62
2023/10/12 02:07:10;;;;;;;12.50;3.70;;;;;;;16.11;54.96;100373.50;4984340;28;20296;-62
2023/10/12 02:09:44;;;;;;;11.77;3.50;;;;;;;16.11;48.67;100362.94;4987306;28;20364;-60
2023/10/12 02:12:16;;;;;;;12.63;3.50;;;;;;;16.14;48.50;100370.72;4977298;28;20354;-64
2023/10/12 02:14:46;;;;;;;10.93;3.50;;;;;;;16.26;51.01;100366.78;4987373;28;20285;-60
2023/10/12 02:17:17;;;;;;;7.90;3.70;;;;;;;16.41;48.31;100362.69;4977200;28;20297;-60
2023/10/12 02:19:49;;;;;;;7.33;3.43;;;;;;;16.34;45.87;100360.28;4987023;28;20308;-61
2023/10/12 02:22:24;;;;;;;18.53;3.57;;;;;;;16.22;45.59;100363.38;4977884;28;20738;-62
2023/10/12 02:25:17;;;;;;;8.03;3.20;;;;;;;15.91;43.39;100351.38;4980884;28;20763;-62
2023/10/12 02:27:54;;;;;;;12.83;3.77;;;;;;;15.83;46.05;100348.16;4963962;28;20304;-63
2023/10/12 02:30:28;;;;;;;12.67;4.03;;;;;;;15.83;46.68;100332.34;4963875;28;20317;-63
2023/10/12 02:33:05;;;;;;;8.70;3.43;;;;;;;15.93;44.93;100344.25;4962313;28;20285;-61
2023/10/12 02:35:44;;;;;;;6.90;3.80;;;;;;;15.94;44.64;100340.69;4948944;28;20307;-61
2023/10/12 02:38:15;;;;;;;7.40;3.67;;;;;;;15.99;46.41;100329.13;4957155;28;20320;-61
2023/10/12 02:40:56;;;;;;;6.67;3.40;;;;;;;16.11;46.99;100326.03;4967106;28;20282;-60
2023/10/12 02:43:28;;;;;;;8.03;3.20;;;;;;;16.25;48.20;100329.00;4970948;28;20584;-64
2023/10/12 02:46:06;;;;;;;8.57;3.90;;;;;;;16.30;46.17;100321.78;4986122;28;20289;-62
2023/10/12 02:48:38;;;;;;;8.43;3.40;;;;;;;16.28;47.11;100315.72;4967288;28;20287;-61
2023/10/12 02:51:11;;;;;;;8.10;3.90;;;;;;;16.38;47.63;100319.69;4985787;28;20289;-61
2023/10/12 02:53:41;;;;;;;5.63;3.27;;;;;;;16.41;47.08;100317.88;4960667;28;20395;-62
2023/10/12 02:56:13;;;;;;;7.40;3.70;;;;;;;16.38;47.74;100314.41;4976062;28;21002;-61
2023/10/12 02:58:45;;;;;;;9.97;3.47;;;;;;;16.38;45.70;100314.41;4985834;28;20351;-62
2023/10/12 03:01:21;;;;;;;6.33;3.33;;;;;;;16.27;44.66;100300.78;4976615;28;20735;-61
2023/10/12 03:03:54;;;;;;;7.73;3.30;;;;;;;16.17;46.29;100305.59;4986025;28;20350;-60
2023/10/12 03:06:29;;;;;;;9.50;3.30;;;;;;;16.28;47.25;100294.63;4975586;28;20281;-61
2023/10/12 03:09:14;;;;;;;8.63;3.20;;;;;;;16.34;45.67;100291.72;4985674;28;20281;-61
2023/10/12 03:11:47;;;;;;;9.03;3.60;;;;;;;16.35;46.75;100290.81;4975665;28;20347;-61
2023/10/12 03:14:26;;;;;;;10.40;3.67;;;;;;;16.39;46.93;100284.47;4976258;28;20628;-61
2023/10/12 03:17:03;;;;;;;8.70;3.60;;;;;;;16.35;46.64;100288.19;4985849;28;20391;-61
2023/10/12 03:19:37;;;;;;;9.07;3.67;;;;;;;16.31;45.24;100283.94;4975653;28;20070;-61
2023/10/12 03:22:19;;;;;;;8.70;3.30;;;;;;;16.33;45.58;100279.47;4985760;28;20277;-62
2023/10/12 03:24:51;;;;;;;10.37;3.40;;;;;;;16.37;46.63;100269.63;4975524;28;20295;-60
2023/10/12 03:27:24;;;;;;;9.70;4.07;;;;;;;16.44;47.18;100267.63;4974774;28;20354;-61
2023/10/12 03:30:06;;;;;;;7.33;3.13;;;;;;;16.49;46.58;100263.88;4985138;28;20297;-61
2023/10/12 03:32:40;;;;;;;8.80;3.90;;;;;;;16.30;45.96;100216.31;4974512;28;20624;-61
2023/10/12 03:35:13;;;;;;;9.60;3.77;;;;;;;16.64;46.70;100256.25;4975779;28;20400;-60
2023/10/12 03:37:47;;;;;;;6.77;3.33;;;;;;;16.68;46.66;100253.44;4984698;28;20303;-64
2023/10/12 03:43:12;;;;;;;10.00;3.60;;;;;;;16.58;45.00;100254.75;4984742;28;20320;-61
2023/10/12 03:46:00;;;;;;;9.50;4.03;;;;;;;16.60;45.68;100255.53;4971597;28;20367;-63
2023/10/12 03:51:37;;;;;;;8.70;3.72;;;;;;;16.56;45.89;100243.38;4953674;28;20636;-60
2023/10/12 03:54:18;;;;;;;7.23;3.77;;;;;;;16.43;45.84;100221.09;4965827;28;20050;-63
2023/10/12 03:56:50;;;;;;;6.97;3.10;;;;;;;16.56;45.51;100248.66;4961262;28;20326;-62
2023/10/12 03:59:37;;;;;;;8.83;3.37;;;;;;;16.50;45.23;100248.91;4975068;28;20811;-64
2023/10/12 04:02:13;;;;;;;8.93;3.77;;;;;;;16.51;46.26;100233.03;4984949;28;20387;-63
2023/10/12 04:04:59;;;;;;;6.77;3.20;;;;;;;16.51;45.96;100240.09;4974957;28;20280;-63
2023/10/12 04:08:00;;;;;;;9.20;3.60;;;;;;;16.47;45.06;100243.75;4974897;28;20300;-61
2023/10/12 04:11:20;;;;;;;9.90;3.53;;;;;;;16.38;44.62;100218.63;4975441;28;20289;-63
2023/10/12 04:16:39;;;;;;;5.70;3.10;;;;;;;16.37;44.81;100217.78;4975420;28;20297;-61
2023/10/12 04:19:09;;;;;;;8.33;3.50;;;;;;;16.46;45.11;100226.22;4980728;28;20317;-64
2023/10/12 04:21:50;;;;;;;;;;;;;;;16.48;44.34;100224.38;4985181;28;20316;-62
2023/10/12 04:24:27;;;;;;;6.97;3.70;;;;;;;16.39;44.68;100221.19;4974431;28;19925;-64
2023/10/12 04:27:23;;;;;;;8.13;3.30;;;;;;;16.39;44.60;100218.56;4984293;28;20320;-64
2023/10/12 04:30:00;;;;;;;5.57;2.97;;;;;;;16.36;44.83;100216.06;4978962;28;20757;-61
2023/10/12 04:32:52;;;;;;;5.60;3.10;;;;;;;16.30;44.34;100213.69;4974942;28;20307;-62
2023/10/12 04:35:41;;;;;;;6.87;3.43;;;;;;;16.29;43.89;100219.84;4974431;28;20289;-61
2023/10/12 04:38:23;;;;;;;7.43;3.33;;;;;;;16.27;43.15;100215.56;4974503;28;20289;-63
2023/10/12 04:43:52;;;;;;;7.17;3.57;;;;;;;16.28;44.08;100206.75;4960646;28;20439;-62
2023/10/12 04:46:39;;;;;;;8.10;3.87;;;;;;;16.29;43.90;100204.03;4967416;28;20373;-61
2023/10/12 04:52:09;;;;;;;8.50;3.33;;;;;;;16.28;44.23;100202.34;4965591;28;20776;-63
2023/10/12 04:54:49;;;;;;;9.17;3.90;;;;;;;16.29;44.67;100197.91;4955082;28;20283;-62
2023/10/12 04:57:26;;;;;;;9.27;3.43;;;;;;;16.25;45.55;100202.47;4956151;28;20340;-63
2023/10/12 05:00:10;;;;;;;8.33;3.40;;;;;;;16.12;44.75;100188.91;4965013;28;20290;-60
2023/10/12 05:02:54;;;;;;;7.03;3.40;;;;;;;16.15;44.96;100195.84;4968913;28;20375;-64
2023/10/12 05:08:14;;;;;;;8.90;3.50;;;;;;;16.10;45.88;100200.41;4974451;28;20359;-64
2023/10/12 05:10:53;;;;;;;8.43;3.50;;;;;;;16.05;44.75;100202.38;4984288;28;20400;-62
2023/10/12 05:13:24;;;;;;;5.82;3.28;;;;;;;16.00;44.63;100201.72;4977343;28;20296;-62
2023/10/12 05:16:04;;;;;;;6.90;3.60;;;;;;;15.96;45.44;100201.84;4988021;28;20133;-62
2023/10/12 05:18:35;;;;;;;6.23;3.90;;;;;;;15.92;45.13;100204.66;4977480;28;20343;-62
2023/10/12 05:21:08;;;;;;;8.33;4.07;;;;;;;15.41;45.62;100130.22;4987240;28;20690;-61
2023/10/12 05:23:39;;;;;;;10.70;3.73;;;;;;;15.82;47.02;100193.59;4977650;28;20300;-61
2023/10/12 05:26:08;;;;;;;9.23;3.73;;;;;;;15.91;44.20;100216.97;4983025;28;20368;-63
2023/10/12 05:28:47;;;;;;;;;;;;;;;15.81;44.81;100218.25;4987924;28;20280;-60
2023/10/12 05:31:20;;;;;;;6.85;3.42;;;;;;;15.72;44.63;100215.97;4978660;28;20625;-62
2023/10/12 05:36:48;;;;;;;8.47;3.83;;;;;;;15.61;45.15;100215.50;4977498;28;20288;-63
2023/10/12 05:39:20;;;;;;;7.40;3.47;;;;;;;15.54;45.56;100215.72;4977917;28;20307;-62
2023/10/12 05:41:54;;;;;;;8.00;4.00;;;;;;;15.53;45.56;100219.28;4987630;28;20572;-65
2023/10/12 05:44:27;;;;;;;6.77;3.33;;;;;;;15.50;45.88;100224.66;4977712;28;20376;-62
2023/10/12 05:47:00;;;;;;;9.77;4.13;;;;;;;15.46;46.78;100227.47;4975129;28;20281;-63
2023/10/12 05:49:33;;;;;;;8.93;3.97;;;;;;;15.44;47.23;100224.88;4958714;28;20281;-63
2023/10/12 05:52:06;;;;;;;7.07;3.70;;;;;;;15.43;47.82;100223.16;4968683;28;20320;-61
2023/10/12 05:54:38;;;;;;;6.23;3.53;;;;;;;15.18;46.62;100190.78;4956395;28;20305;-64
2023/10/12 05:57:19;;;;;;;8.97;3.77;;;;;;;15.30;46.32;100222.75;4968279;28;20314;-63
2023/10/12 05:59:49;;;;;;;11.17;3.93;;;;;;;15.27;46.89;100222.00;4958544;28;20317;-62
2023/10/12 06:02:22;;;;;;;20.30;4.17;;;;;;;15.28;46.14;100229.84;4958925;28;20951;-63
2023/10/12 06:04:52;;;;;;;13.77;3.80;;;;;;;15.19;45.80;100234.59;4968172;28;20316;-61
2023/10/12 06:07:25;;;;;;;7.37;3.70;;;;;;;15.12;47.93;100227.81;4975014;28;20296;-61
2023/10/12 06:09:55;;;;;;;8.47;3.63;;;;;;;15.06;48.37;100229.75;4995354;28;20285;-62
2023/10/12 06:12:29;;;;;;;6.93;3.33;;;;;;;14.99;47.84;100223.00;4976635;28;20299;-67
2023/10/12 06:15:00;;;;;;;8.87;3.47;;;;;;;14.96;48.89;100233.63;4986528;28;20965;-62
2023/10/12 06:17:30;;;;;;;9.23;3.87;;;;;;;14.88;48.81;100235.69;4976437;28;20289;-64
2023/10/12 06:20:10;;;;;;;11.17;4.17;;;;;;;14.77;48.43;100232.53;4986419;28;20301;-63
2023/10/12 06:22:42;;;;;;;8.33;3.40;;;;;;;14.69;49.29;100234.56;4959197;28;20308;-62
2023/10/12 06:25:17;;;;;;;11.90;3.80;;;;;;;14.61;49.94;100238.31;4977329;28;20289;-64
2023/10/12 06:27:49;;;;;;;6.30;3.50;;;;;;;14.55;49.08;100233.28;4987061;28;20291;-61
2023/10/12 06:30:23;;;;;;;9.17;3.87;;;;;;;14.50;49.81;100234.28;4977145;28;20289;-63
2023/10/12 06:32:58;;;;;;;6.37;3.50;;;;;;;14.46;50.48;100228.28;4986692;28;20677;-62
2023/10/12 06:35:33;;;;;;;8.30;4.13;;;;;;;14.42;50.60;100226.66;4976557;28;20253;-63
2023/10/12 06:38:23;;;;;;;11.93;3.70;;;;;;;14.33;50.45;100227.84;4986420;28;20767;-63
2023/10/12 06:41:00;;;;;;;7.33;3.60;;;;;;;14.24;50.35;100226.34;4980803;28;20281;-62
2023/10/12 06:46:19;;;;;;;8.13;4.00;;;;;;;14.04;49.46;100231.38;4970458;28;20388;-67
2023/10/12 06:48:58;;;;;;;7.77;3.53;;;;;;;13.98;50.43;100228.94;4967384;28;20283;-62
2023/10/12 06:51:30;;;;;;;8.27;3.67;;;;;;;13.94;51.29;100219.44;4957152;28;20286;-63
2023/10/12 06:54:17;;;;;;;6.20;3.60;;;;;;;13.78;50.58;100205.91;4967178;28;20058;-64
2023/10/12 06:56:51;;;;;;;7.80;3.37;;;;;;;13.75;51.83;100214.75;4951510;28;20281;-63
2023/10/12 06:59:35;;;;;;;7.43;3.90;;;;;;;13.65;52.70;100218.53;4947874;28;20761;-62
2023/10/12 07:02:09;;;;;;;12.40;4.37;;;;;;;13.58;52.54;100211.78;4947637;28;20389;-63
2023/10/12 07:04:53;;;;;;;12.20;4.57;;;;;;;13.51;53.91;100215.47;4937332;28;20282;-63
2023/10/12 07:07:29;;;;;;;14.10;3.77;;;;;;;13.37;53.74;100214.09;4938648;28;20356;-65
2023/10/12 07:10:13;;;;;;;14.53;5.93;;;;;;;13.26;53.20;100216.16;4966583;28;20344;-63
2023/10/12 07:12:48;;;;;;;13.63;5.32;;;;;;;13.21;54.93;100204.91;4964832;28;20351;-63
2023/10/12 07:15:22;;;;;;;12.60;4.13;;;;;;;12.81;55.26;100156.19;4976221;28;20072;-63
2023/10/12 07:17:52;;;;;;;11.25;4.50;;;;;;;13.05;57.17;100212.34;4985803;28;20057;-62
2023/10/12 07:20:27;;;;;;;12.07;4.32;;;;;;;13.02;58.62;100201.06;4975974;28;20054;-62
2023/10/12 07:23:04;;;;;;;13.43;4.28;;;;;;;12.97;59.58;100202.97;4985714;28;20141;-63
2023/10/12 07:25:37;;;;;;;17.52;5.93;;;;;;;12.80;58.94;100199.03;4975344;28;20068;-63
2023/10/12 07:28:16;;;;;;;13.45;5.30;;;;;;;12.67;59.94;100195.00;4985991;28;20069;-63
2023/10/12 07:33:32;;;;;;;14.55;5.20;;;;;;;12.39;61.02;100205.34;4974941;28;20499;-63
2023/10/12 07:36:16;;;;;;;13.10;4.00;;;;;;;11.99;61.31;100154.78;4984600;28;20045;-66
2023/10/12 07:38:55;;;;;;;15.98;5.78;;;;;;;12.01;62.02;100197.50;4975443;28;20153;-62
2023/10/12 07:41:41;;;;;;;14.63;5.28;;;;;;;11.81;63.98;100202.31;4975170;28;20050;-61
2023/10/12 07:44:12;;;;;;;10.55;4.90;;;;;;;11.52;65.19;100200.31;4956489;28;20634;-64
2023/10/12 07:46:42;;;;;;;10.95;4.93;;;;;;;11.36;65.22;100210.25;4965236;28;20153;-64
2023/10/12 07:49:25;;;;;;;14.25;4.50;;;;;;;11.17;64.99;100209.75;4955831;28;20072;-68
2023/10/12 07:51:59;;;;;;;13.77;5.65;;;;;;;11.05;65.77;100205.59;4965397;28;20062;-63
2023/10/12 07:57:31;;;;;;;12.90;5.40;;;;;;;10.72;67.74;100212.34;5073541;27;20163;-63
2023/10/12 08:00:29;;;;;;;13.18;5.13;;;;;;;10.56;68.34;100216.97;5080981;28;20109;-63
2023/10/12 08:05:56;;;;;;;12.55;4.78;;;;;;;10.16;69.83;100217.59;5070104;28;20063;-64
2023/10/12 08:08:37;;;;;;;18.52;5.13;;;;;;;9.96;70.78;100224.84;5069648;28;20523;-63
2023/10/12 08:11:18;;;;;;;11.10;4.50;;;;;;;9.74;72.17;100227.75;5080747;28;20052;-64
2023/10/12 08:13:54;;;;;;;10.13;4.18;;;;;;;9.46;73.61;100232.44;5058163;28;20129;-62
2023/10/12 08:16:29;;;;;;;14.00;5.38;;;;;;;9.29;75.27;100232.66;5051034;28;20097;-64
2023/10/12 08:21:47;;;;;;;15.60;5.10;;;;;;;8.97;77.06;100236.47;5049847;28;20040;-65
2023/10/12 08:24:24;;;;;;;10.23;4.40;;;;;;;8.86;77.54;100233.09;5049774;28;20060;-65
2023/10/12 08:27:05;;;;;;;9.43;5.05;;;;;;;8.74;77.86;100239.31;5059343;28;20127;-64
2023/10/12 08:32:33;;;;;;;7.97;4.60;;;;;;;8.47;78.51;100243.03;5049449;28;20620;-64
2023/10/12 08:40:44;;;;;;;10.82;4.50;;;;;;;8.29;80.17;100266.56;5064122;28;20633;-64
2023/10/12 08:43:34;;;;;;;14.93;5.07;;;;;;;8.21;79.86;100269.19;5069689;28;20066;-64
2023/10/12 08:46:10;;;;;;;10.48;4.65;;;;;;;8.12;80.07;100254.53;5079721;28;20147;-64
2023/10/12 08:48:52;;;;;;;14.50;6.03;;;;;;;8.08;79.94;100258.00;5069731;28;20048;-64
2023/10/12 08:51:33;;;;;;;11.18;5.57;;;;;;;7.99;80.37;100268.50;5059574;28;20046;-64
2023/10/12 08:54:08;;;;;;;12.38;5.55;;;;;;;7.89;81.01;100266.81;5075045;28;20052;-64
2023/10/12 08:56:45;;;;;;;14.10;5.03;;;;;;;7.82;82.12;100270.31;5064708;28;20529;-64
2023/10/12 08:59:17;;;;;;;13.95;5.15;;;;;;;7.72;83.41;100270.34;5065287;28;20513;-64
2023/10/12 09:01:51;;;;;;;10.13;5.70;;;;;;;7.66;84.26;100274.72;5075630;28;20048;-65
2023/10/12 09:04:29;;;;;;;11.10;4.78;;;;;;;7.47;85.09;100258.34;5065719;28;20140;-64
2023/10/12 09:07:03;;;;;;;18.80;5.57;;;;;;;7.58;86.18;100266.94;5072153;28;20056;-65
2023/10/12 09:09:55;;;;;;;20.58;5.43;;;;;;;7.51;86.56;100275.63;5051290;28;20060;-66
2023/10/12 09:12:26;;;;;;;20.63;8.02;;;;;;;7.54;87.28;100275.66;5051222;28;20059;-64
2023/10/12 09:14:57;;;;;;;33.78;8.80;;;;;;;7.55;86.80;100282.56;5061417;28;20141;-63
2023/10/12 09:17:32;;;;;;;18.30;6.45;;;;;;;7.27;86.68;100225.47;5051578;28;20137;-64
2023/10/12 09:22:57;;;;;;;10.48;5.00;;;;;;;7.63;85.87;100275.59;5009153;28;20135;-64
2023/10/12 09:25:59;;;;;;;150.25;86.57;;;;;;;7.52;85.30;100274.78;5022235;28;20129;-64
2023/10/12 09:28:42;;;;;;;106.97;58.95;;;;;;;7.34;86.16;100279.19;5021747;28;20381;-64
2023/10/12 09:31:15;;;;;;;105.95;60.72;;;;;;;7.22;86.52;100271.41;5022467;28;20058;-63
2023/10/12 09:33:54;;;;;;;70.95;43.25;;;;;;;7.15;86.76;100274.88;5032054;28;20067;-64
2023/10/12 09:36:24;;;;;;;26.90;12.98;;;;;;;7.03;86.29;100277.50;5021173;28;20051;-67
2023/10/12 09:39:00;;;;;;;13.35;7.18;;;;;;;6.89;85.80;100275.81;5031536;28;20067;-64
2023/10/12 09:41:32;;;;;;;15.52;5.95;;;;;;;6.76;85.73;100262.81;5022492;28;20166;-65
2023/10/12 09:44:05;;;;;;;11.57;6.28;;;;;;;6.78;85.93;100269.75;5031740;28;20128;-66
2023/10/12 09:46:36;;;;;;;15.13;6.28;;;;;;;6.75;85.94;100272.34;5050242;28;20052;-66
2023/10/12 09:49:21;;;;;;;21.58;7.45;;;;;;;6.74;86.29;100270.63;5061825;28;20067;-65
2023/10/12 09:51:54;;;;;;;14.85;5.88;;;;;;;6.77;86.36;100268.03;5047016;28;20134;-65
2023/10/12 09:54:33;;;;;;;18.42;10.63;;;;;;;6.72;86.32;100267.16;5031543;28;20127;-65
2023/10/12 09:57:16;;;;;;;31.55;20.30;;;;;;;6.66;86.78;100259.34;5064110;28;20044;-66
2023/10/12 09:59:53;;;;;;;25.23;16.13;;;;;;;6.69;87.23;100273.22;5049962;28;20071;-66
2023/10/12 10:02:30;;;;;;;27.75;14.82;;;;;;;6.57;87.53;100259.38;5049421;28;20048;-64
2023/10/12 10:05:11;;;;;;;18.55;8.38;;;;;;;6.57;87.96;100272.38;5060325;28;20579;-65
2023/10/12 10:07:52;;;;;;;13.43;6.40;;;;;;;6.53;87.67;100265.44;5059580;28;20078;-64
2023/10/12 10:10:30;;;;;;;18.15;6.97;;;;;;;6.52;87.34;100271.50;5059855;28;20147;-64
2023/10/12 10:13:02;;;;;;;11.80;6.03;;;;;;;6.47;86.89;100267.16;5069841;28;20489;-65
2023/10/12 10:15:37;;;;;;;14.07;6.72;;;;;;;6.13;86.80;100219.56;5058283;28;20210;-65
2023/10/12 10:18:15;;;;;;;13.55;6.63;;;;;;;6.36;87.04;100268.00;5069023;28;20105;-65
2023/10/12 10:20:59;;;;;;;13.43;6.32;;;;;;;6.37;87.51;100270.63;5042251;28;20896;-65
2023/10/12 10:23:36;;;;;;;13.88;6.28;;;;;;;6.34;87.55;100255.06;5050091;28;20053;-64
2023/10/12 10:26:16;;;;;;;14.32;7.63;;;;;;;6.31;87.81;100273.19;5060143;28;20048;-65
2023/10/12 10:28:54;;;;;;;18.30;8.30;;;;;;;6.27;88.22;100261.09;5050198;28;20067;-64
2023/10/12 10:31:28;;;;;;;14.65;7.97;;;;;;;6.33;88.75;100268.88;5050787;28;20040;-64
2023/10/12 10:34:04;;;;;;;13.32;7.80;;;;;;;6.31;88.76;100265.41;5054938;28;20048;-64
2023/10/12 10:36:36;;;;;;;15.50;8.70;;;;;;;6.26;89.01;100267.13;5049142;28;20036;-64
2023/10/12 10:39:28;;;;;;;14.32;6.78;;;;;;;6.10;89.25;100236.84;5059694;28;20048;-65
2023/10/12 10:42:04;;;;;;;15.00;6.85;;;;;;;6.27;89.20;100268.88;5059303;28;20052;-64
2023/10/12 10:44:41;;;;;;;13.50;6.68;;;;;;;6.29;89.18;100263.66;5048974;28;20056;-64
2023/10/12 10:47:15;;;;;;;17.75;7.97;;;;;;;6.21;88.54;100271.44;5048833;28;20074;-64
2023/10/12 10:49:48;;;;;;;12.90;8.13;;;;;;;6.14;88.81;100256.72;5059675;28;20076;-64
2023/10/12 10:52:21;;;;;;;15.40;8.10;;;;;;;6.11;88.85;100272.28;5050145;28;21167;-64
2023/10/12 10:54:59;;;;;;;12.98;7.72;;;;;;;6.02;88.76;100271.44;5054007;28;20052;-64
2023/10/12 10:57:37;;;;;;;12.90;7.53;;;;;;;5.96;89.17;100279.19;5048942;28;20147;-64
2023/10/12 11:00:15;;;;;;;13.77;6.03;;;;;;;5.68;89.63;100230.66;5059553;28;20060;-65
2023/10/12 11:02:48;;;;;;;13.60;7.05;;;;;;;6.00;89.88;100277.47;5042911;28;20194;-65
2023/10/12 11:05:19;;;;;;;9.15;5.70;;;;;;;6.00;89.84;100260.19;5048829;28;20055;-64
2023/10/12 11:07:52;;;;;;;13.77;6.45;;;;;;;6.07;89.29;100273.19;5059345;28;20055;-65
2023/10/12 11:10:31;;;;;;;13.23;6.07;;;;;;;6.08;88.73;100261.94;5050185;28;20525;-65
2023/10/12 11:13:02;;;;;;;11.48;6.38;;;;;;;6.03;88.24;100260.19;5054943;28;20071;-66
2023/10/12 11:15:33;;;;;;;11.50;6.07;;;;;;;5.74;88.83;100241.03;5048962;28;20434;-64
2023/10/12 11:18:07;;;;;;;10.85;6.07;;;;;;;5.86;88.99;100276.53;5059207;28;20047;-65
2023/10/12 11:20:43;;;;;;;12.15;6.22;;;;;;;5.76;89.06;100265.25;5048417;28;20059;-64
2023/10/12 11:23:18;;;;;;;14.55;6.72;;;;;;;5.68;89.79;100277.34;5048779;28;20048;-65
2023/10/12 11:25:48;;;;;;;8.02;5.18;;;;;;;5.57;90.67;100265.19;5059387;28;20083;-65
2023/10/12 11:28:22;;;;;;;10.65;6.05;;;;;;;5.66;90.92;100273.88;5050030;28;20062;-64
2023/10/12 11:31:01;;;;;;;11.52;5.60;;;;;;;5.71;90.94;100274.75;5058823;28;20070;-64
2023/10/12 11:33:32;;;;;;;10.20;5.13;;;;;;;5.66;90.55;100271.28;5048623;28;20048;-64
2023/10/12 11:36:04;;;;;;;11.20;5.93;;;;;;;5.58;90.42;100250.50;5059008;28;20800;-64
2023/10/12 11:38:36;;;;;;;10.80;5.78;;;;;;;5.79;91.21;100286.00;5039805;28;20117;-64
2023/10/12 11:41:16;;;;;;;16.65;6.32;;;;;;;5.63;90.27;100275.56;5059121;28;20147;-64
2023/10/12 11:43:49;;;;;;;16.13;7.10;;;;;;;5.62;90.98;100289.41;5022360;28;20044;-63
2023/10/12 11:46:20;;;;;;;15.48;7.00;;;;;;;5.67;91.12;100283.41;5020424;28;20044;-64
2023/10/12 11:49:06;;;;;;;15.88;6.70;;;;;;;5.66;91.12;100279.91;5030945;28;20391;-63
2023/10/12 11:51:40;;;;;;;18.17;6.05;;;;;;;5.58;90.85;100276.44;5027093;28;20145;-64
2023/10/12 11:54:19;;;;;;;19.00;7.32;;;;;;;5.57;90.92;100280.75;5052945;28;20671;-64
2023/10/12 11:56:52;;;;;;;18.40;8.73;;;;;;;5.16;90.78;100242.53;5068003;28;20051;-61
2023/10/12 11:59:27;;;;;;;16.10;7.80;;;;;;;5.44;91.63;100288.44;5035537;28;20065;-62
2023/10/12 12:02:03;;;;;;;18.40;8.35;;;;;;;5.37;91.73;100277.22;5042827;28;20064;-63
2023/10/12 12:04:39;;;;;;;16.45;7.15;;;;;;;5.33;91.70;100275.44;5032286;28;20044;-62
2023/10/12 12:07:26;;;;;;;14.85;7.35;;;;;;;5.27;91.97;100280.63;5044233;28;20089;-62
2023/10/12 12:10:01;;;;;;;14.52;7.22;;;;;;;5.29;92.47;100273.69;5060219;28;20109;-63
2023/10/12 12:12:32;;;;;;;17.65;7.50;;;;;;;5.22;92.29;100269.34;5051841;28;20048;-62
2023/10/12 12:15:02;;;;;;;11.25;6.40;;;;;;;5.18;92.50;100271.91;5062715;28;20075;-63
2023/10/12 12:17:35;;;;;;;13.20;6.85;;;;;;;5.08;92.61;100270.13;5051604;28;20058;-62
2023/10/12 12:20:13;;;;;;;13.95;7.60;;;;;;;4.80;93.05;100217.31;5062173;28;20524;-62
2023/10/12 12:22:44;;;;;;;14.70;8.07;;;;;;;5.08;93.50;100262.34;5051922;28;20475;-64
2023/10/12 12:25:31;;;;;;;14.50;7.47;;;;;;;5.04;93.81;100258.03;5052228;28;20058;-64
2023/10/12 12:28:04;;;;;;;16.50;7.47;;;;;;;5.00;93.72;100250.25;5062373;28;20515;-62
2023/10/12 12:30:39;;;;;;;13.52;7.53;;;;;;;5.05;94.53;100239.03;5051710;28;20056;-61
2023/10/12 12:33:15;;;;;;;16.45;7.85;;;;;;;5.09;94.61;100245.97;5051823;28;20347;-63
2023/10/12 12:35:48;;;;;;;15.20;7.28;;;;;;;4.96;94.35;100238.97;5061919;28;20048;-62
2023/10/12 12:38:28;;;;;;;13.93;7.15;;;;;;;4.95;95.16;100252.78;5051906;28;20364;-63
2023/10/12 12:41:05;;;;;;;12.90;7.05;;;;;;;4.83;95.05;100237.19;5061961;28;20044;-62
2023/10/12 12:43:36;;;;;;;14.40;7.15;;;;;;;4.96;94.98;100259.69;5033758;28;20052;-63
2023/10/12 12:46:06;;;;;;;19.50;7.57;;;;;;;4.96;94.74;100249.34;5051797;28;20068;-62
2023/10/12 12:48:37;;;;;;;16.48;7.95;;;;;;;4.92;94.91;100253.63;5054997;28;20052;-62
2023/10/12 12:51:11;;;;;;;15.80;9.20;;;;;;;4.89;94.48;100253.63;5064174;28;20056;-63